This is the latest recevied weather packets stored in our database for station/object OK1KKY-18. If no packets are shown the sender has not sent any weather packets the latest 10 day(s).
| Time | Temp. | Humidity | Pressure | Rain* | Wind** | Luminosity | Snow |
|---|---|---|---|---|---|---|---|
| 1777482328 | 5.56° C | 34% | 1028 hPa | - | - | - | - |
| 1777481728 | 5.56° C | 33% | 1027.8 hPa | - | - | - | - |
| 1777481128 | 5.56° C | 36% | 1027.6 hPa | - | - | - | - |
| 1777480528 | 5.56° C | 34% | 1027.4 hPa | - | - | - | - |
| 1777479928 | 5.56° C | 35% | 1027.6 hPa | - | - | - | - |
| 1777479329 | 6.11° C | 34% | 1027.7 hPa | - | - | - | - |
| 1777478728 | 6.67° C | 32% | 1027.4 hPa | - | - | - | - |
| 1777477528 | 7.22° C | 30% | 1027.6 hPa | - | - | - | - |
| 1777476928 | 7.22° C | 29% | 1027.3 hPa | - | - | - | - |
| 1777476328 | 8.33° C | 28% | 1027.3 hPa | - | - | - | - |
| 1777475728 | 8.33° C | 27% | 1027.4 hPa | - | - | - | - |
| 1777475128 | 9.44° C | 27% | 1027.2 hPa | - | - | - | - |
| 1777474528 | 7.78° C | 27% | 1027.7 hPa | - | - | - | - |
| 1777473928 | 8.89° C | 26% | 1027.3 hPa | - | - | - | - |
| 1777473328 | 8.33° C | 27% | 1027.4 hPa | - | - | - | - |
| 1777472728 | 9.44° C | 25% | 1027.2 hPa | - | - | - | - |
| 1777472128 | 8.89° C | 25% | 1027.1 hPa | - | - | - | - |
| 1777471528 | 10° C | 25% | 1027.2 hPa | - | - | - | - |
| 1777470928 | 8.33° C | 27% | 1027.3 hPa | - | - | - | - |
| 1777470328 | 9.44° C | 26% | 1026.9 hPa | - | - | - | - |
| 1777469728 | 9.44° C | 26% | 1027.2 hPa | - | - | - | - |
| 1777469128 | 10° C | 26% | 1026.9 hPa | - | - | - | - |
| 1777468528 | 9.44° C | 28% | 1026.9 hPa | - | - | - | - |
| 1777467928 | 10° C | 27% | 1026.8 hPa | - | - | - | - |
| 1777467328 | 8.89° C | 28% | 1027 hPa | - | - | - | - |
* Rain since midnight (hover to see other rain measurements)
** Current wind speed in m/s (hover to see current wind gust speed)